Time;durP1;ratioP1;P1;durP2;ratioP2;P2;SDS_P1;SDS_P2;PMS_P1;PMS_P2;Temp;Humidity;BMP_temperature;BMP_pressure;BME280_temperature;BME280_humidity;BME280_pressure;Samples;Min_cycle;Max_cycle;Signal;HPM_P1;HPM_P2
2022/07/21 00:01:34;;;;;;;8.50;4.60;;;;;;;20.13;59.62;100124.16;5024833;28;20030;-29
2022/07/21 00:04:00;;;;;;;7.88;4.15;;;;;;;20.01;60.09;100136.13;5025417;28;20030;-28
2022/07/21 00:06:25;;;;;;;7.82;4.32;;;;;;;20.03;60.31;100143.97;5026709;28;20365;-29
2022/07/21 00:08:51;;;;;;;5.10;3.83;;;;;;;20.05;60.27;100142.59;5026350;28;20032;-28
2022/07/21 00:11:17;;;;;;;9.25;5.15;;;;;;;20.01;60.60;100149.66;5024922;28;20076;-36
2022/07/21 00:13:42;;;;;;;10.77;5.00;;;;;;;19.91;60.86;100144.31;5026460;28;20042;-29
2022/07/21 00:16:08;;;;;;;9.75;4.63;;;;;;;19.78;61.21;100123.28;5024981;28;20768;-28
2022/07/21 00:18:33;;;;;;;9.18;4.95;;;;;;;19.65;61.91;100124.66;5026929;28;20034;-27
2022/07/21 00:21:00;;;;;;;8.13;4.80;;;;;;;19.71;62.26;100144.41;5026628;28;20040;-28
2022/07/21 00:23:26;;;;;;;12.13;4.88;;;;;;;19.71;61.40;100139.81;5026142;28;20026;-27
2022/07/21 00:25:52;;;;;;;13.60;5.72;;;;;;;19.70;61.00;100137.38;5024824;28;20029;-27
2022/07/21 00:28:18;;;;;;;10.80;5.53;;;;;;;19.58;61.25;100134.97;5025070;28;20104;-28
2022/07/21 00:30:45;;;;;;;13.15;6.95;;;;;;;19.89;60.59;100132.97;5026489;28;20044;-29
2022/07/21 00:33:10;;;;;;;10.32;5.60;;;;;;;19.96;59.97;100125.34;5025059;28;20033;-28
2022/07/21 00:35:36;;;;;;;10.18;5.38;;;;;;;20.21;59.04;100131.69;5026172;28;20430;-27
2022/07/21 00:38:02;;;;;;;8.30;4.63;;;;;;;19.98;59.36;100117.75;5026213;28;20036;-28
2022/07/21 00:40:27;;;;;;;7.68;4.15;;;;;;;20.31;58.15;100125.38;5027660;28;20516;-27
2022/07/21 00:42:53;;;;;;;8.65;4.15;;;;;;;20.34;57.27;100120.22;5030517;28;20108;-29
2022/07/21 00:45:19;;;;;;;11.38;4.32;;;;;;;20.21;58.36;100137.91;5028548;28;20075;-27
2022/07/21 00:47:44;;;;;;;8.63;4.53;;;;;;;20.11;59.05;100137.19;5030099;28;20029;-29
2022/07/21 00:50:14;;;;;;;7.57;4.40;;;;;;;20.05;59.79;100129.06;5029962;28;20049;-29
2022/07/21 00:52:40;;;;;;;7.15;4.35;;;;;;;19.59;61.27;100131.97;5030185;28;20025;-29
2022/07/21 00:55:09;;;;;;;8.23;4.60;;;;;;;19.14;63.76;100125.66;5028820;28;20030;-28
2022/07/21 00:57:35;;;;;;;7.13;4.18;;;;;;;19.49;61.91;100123.91;5029755;28;20029;-27
2022/07/21 01:00:02;;;;;;;8.82;4.75;;;;;;;19.86;60.44;100128.91;5028494;28;20041;-28
2022/07/21 01:02:28;;;;;;;9.65;4.75;;;;;;;19.66;60.48;100105.44;5028235;28;20494;-28
2022/07/21 01:04:54;;;;;;;8.52;4.50;;;;;;;19.76;59.78;100130.88;5029632;28;20048;-37
2022/07/21 01:07:20;;;;;;;9.38;4.70;;;;;;;19.68;59.93;100130.31;5027478;28;20095;-28
2022/07/21 01:09:46;;;;;;;9.13;4.18;;;;;;;19.75;59.93;100123.84;5029822;28;20130;-30
2022/07/21 01:12:11;;;;;;;14.55;6.78;;;;;;;19.56;59.39;100110.91;5029687;28;20548;-28
2022/07/21 01:14:37;;;;;;;14.20;7.40;;;;;;;19.44;60.28;100124.75;5029278;28;20044;-28
2022/07/21 01:17:03;;;;;;;16.20;7.32;;;;;;;19.41;60.11;100102.84;5029505;28;20061;-29
2022/07/21 01:19:29;;;;;;;16.17;7.40;;;;;;;19.52;60.67;100117.16;5029099;28;20052;-29
2022/07/21 01:21:55;;;;;;;10.13;5.60;;;;;;;19.18;61.21;100098.88;5028009;28;20037;-27
2022/07/21 01:24:20;;;;;;;12.57;6.50;;;;;;;19.11;61.88;100120.81;5029545;28;20547;-27
2022/07/21 01:26:49;;;;;;;9.25;5.00;;;;;;;19.22;61.30;100106.16;5029660;28;20037;-29
2022/07/21 01:29:15;;;;;;;11.10;5.85;;;;;;;19.08;61.89;100107.81;5027878;28;20030;-27
2022/07/21 01:31:43;;;;;;;9.85;5.05;;;;;;;19.15;61.71;100111.06;5027609;28;20124;-28
2022/07/21 01:34:09;;;;;;;8.70;4.37;;;;;;;19.00;62.07;100106.50;5027673;28;20091;-28
2022/07/21 01:36:34;;;;;;;8.98;4.57;;;;;;;19.09;61.83;100106.75;5027427;28;20030;-30
2022/07/21 01:41:44;;;;;;;7.10;3.78;;;;;;;19.17;62.54;100100.78;5029181;28;20480;-28
2022/07/21 01:44:12;;;;;;;6.35;3.60;;;;;;;19.18;63.38;100110.50;5028980;28;20749;-28
2022/07/21 01:46:50;;;;;;;6.03;4.10;;;;;;;19.24;63.49;100105.88;5027625;28;20030;-28
2022/07/21 01:49:17;;;;;;;6.95;4.07;;;;;;;19.06;63.67;100091.06;5027368;28;20029;-27
2022/07/21 01:51:43;;;;;;;6.35;3.97;;;;;;;19.02;63.87;100108.91;5026242;28;20038;-27
2022/07/21 01:54:09;;;;;;;7.80;4.55;;;;;;;19.22;62.90;100087.22;5028852;28;20424;-27
2022/07/21 01:56:37;;;;;;;8.18;4.43;;;;;;;18.93;64.34;100103.25;5028679;28;20485;-27
2022/07/21 01:59:02;;;;;;;5.45;3.83;;;;;;;18.88;64.32;100111.41;5027110;28;20542;-28
2022/07/21 02:01:29;;;;;;;6.18;3.90;;;;;;;18.67;64.97;100107.84;5026805;28;20100;-28
2022/07/21 02:03:56;;;;;;;7.47;4.35;;;;;;;18.87;64.43;100113.25;5027369;28;20106;-30
2022/07/21 02:06:23;;;;;;;10.43;4.38;;;;;;;19.22;63.60;100108.84;5027169;28;20040;-29
2022/07/21 02:08:48;;;;;;;7.00;4.38;;;;;;;19.32;63.01;100109.91;5028547;28;20026;-31
2022/07/21 02:11:15;;;;;;;9.20;4.95;;;;;;;18.70;65.06;100117.34;5027003;28;20041;-27
2022/07/21 02:13:41;;;;;;;7.77;4.07;;;;;;;18.40;65.62;100117.03;5028151;28;20159;-28
2022/07/21 02:16:08;;;;;;;9.05;4.50;;;;;;;18.32;66.86;100109.47;5026459;28;20072;-27
2022/07/21 02:18:34;;;;;;;7.93;4.15;;;;;;;18.33;66.14;100111.13;5027108;28;20103;-27
2022/07/21 02:20:59;;;;;;;10.27;4.55;;;;;;;18.58;64.26;100098.69;5028572;28;20040;-27
2022/07/21 02:23:25;;;;;;;8.27;4.40;;;;;;;18.61;64.46;100106.25;5027950;28;20029;-27
2022/07/21 02:25:52;;;;;;;7.50;4.50;;;;;;;18.13;66.57;100089.50;5026812;28;20508;-28
2022/07/21 02:28:18;;;;;;;7.85;4.40;;;;;;;18.58;64.83;100104.09;5026706;28;20556;-31
2022/07/21 02:30:45;;;;;;;8.45;4.30;;;;;;;18.51;64.21;100111.66;5026601;28;20061;-28
2022/07/21 02:33:10;;;;;;;7.68;4.80;;;;;;;18.51;63.83;100090.03;5028290;28;20036;-27
2022/07/21 02:35:36;;;;;;;6.88;4.43;;;;;;;18.42;65.22;100098.69;5028112;28;20463;-28
2022/07/21 02:38:02;;;;;;;8.13;4.22;;;;;;;18.69;64.27;100092.19;5028002;28;20029;-28
2022/07/21 02:40:27;;;;;;;9.90;4.35;;;;;;;18.43;64.74;100094.91;5028011;28;20129;-28
2022/07/21 02:42:53;;;;;;;10.70;4.82;;;;;;;18.35;65.05;100079.25;5027830;28;20025;-31
2022/07/21 02:45:18;;;;;;;10.13;4.47;;;;;;;18.35;64.06;100065.75;5026001;28;20029;-28
2022/07/21 02:48:08;;;;;;;6.85;4.32;;;;;;;18.22;64.87;100093.28;5028079;28;20029;-27
2022/07/21 02:50:36;;;;;;;9.25;4.72;;;;;;;18.55;63.62;100083.03;5022419;28;20075;-32
2022/07/21 02:53:04;;;;;;;7.65;4.82;;;;;;;18.29;63.94;100091.13;5026257;28;20030;-27
2022/07/21 02:55:30;;;;;;;7.32;4.88;;;;;;;18.52;64.13;100091.69;5025680;28;20038;-34
2022/07/21 02:58:14;;;;;;;11.30;6.30;;;;;;;18.37;64.24;100095.16;5027518;28;20029;-29
2022/07/21 03:00:47;;;;;;;12.30;6.00;;;;;;;18.20;65.22;100095.44;5010042;28;20144;-27
2022/07/21 03:03:13;;;;;;;12.02;5.47;;;;;;;18.34;65.47;100093.81;5025959;28;20026;-28
2022/07/21 03:05:39;;;;;;;6.43;4.20;;;;;;;18.10;66.30;100084.63;5026666;28;20083;-30
2022/07/21 03:08:05;;;;;;;7.88;4.40;;;;;;;18.07;66.86;100092.19;5025508;28;20676;-27
2022/07/21 03:10:31;;;;;;;7.72;4.10;;;;;;;17.82;66.56;100082.13;5025644;28;20048;-27
2022/07/21 03:12:56;;;;;;;7.03;4.55;;;;;;;18.11;65.84;100088.97;5027409;28;20037;-27
2022/07/21 03:15:22;;;;;;;9.63;4.57;;;;;;;18.26;65.75;100086.25;5026479;28;20045;-29
2022/07/21 03:17:47;;;;;;;6.82;4.13;;;;;;;18.42;65.18;100082.50;5027190;28;20068;-28
2022/07/21 03:20:13;;;;;;;9.02;4.55;;;;;;;18.38;64.99;100097.59;5026971;28;20030;-28
2022/07/21 03:22:38;;;;;;;8.48;4.97;;;;;;;18.34;64.87;100066.84;5027116;28;20021;-28
2022/07/21 03:25:05;;;;;;;9.70;4.82;;;;;;;18.56;64.47;100087.34;5026927;28;20037;-27
2022/07/21 03:27:31;;;;;;;8.10;4.57;;;;;;;18.67;63.91;100088.94;5026603;28;20243;-30
2022/07/21 03:29:56;;;;;;;8.98;4.50;;;;;;;18.61;64.09;100069.25;5026505;28;20037;-32
2022/07/21 03:32:22;;;;;;;19.33;6.68;;;;;;;18.45;65.16;100090.06;5027010;28;20375;-27
2022/07/21 03:34:47;;;;;;;20.17;6.10;;;;;;;18.23;65.84;100090.31;5026645;28;20060;-31
2022/07/21 03:37:13;;;;;;;32.88;7.75;;;;;;;17.96;65.86;100084.34;5025035;28;20029;-29
2022/07/21 03:39:38;;;;;;;18.17;5.88;;;;;;;18.14;65.63;100075.72;5026724;28;20034;-27
2022/07/21 03:42:04;;;;;;;14.13;5.18;;;;;;;18.24;64.97;100091.13;5026602;28;20041;-28
2022/07/21 03:44:29;;;;;;;14.73;5.32;;;;;;;18.23;65.50;100090.31;5026737;28;20034;-31
2022/07/21 03:46:58;;;;;;;11.40;5.30;;;;;;;18.38;65.48;100097.59;5026711;28;20060;-28
2022/07/21 03:49:24;;;;;;;11.30;4.90;;;;;;;18.37;65.29;100096.00;5025165;28;20040;-28
2022/07/21 03:51:49;;;;;;;10.52;5.03;;;;;;;18.28;65.77;100098.41;5026516;28;20064;-29
2022/07/21 03:54:14;;;;;;;8.20;5.38;;;;;;;18.55;64.92;100091.97;5025207;28;20555;-28
2022/07/21 03:56:40;;;;;;;6.53;4.93;;;;;;;18.23;65.62;100078.72;5026726;28;20026;-28
2022/07/21 03:59:05;;;;;;;8.40;5.13;;;;;;;18.18;66.23;100097.59;5026703;28;20032;-34
2022/07/21 04:01:31;;;;;;;8.05;5.28;;;;;;;18.10;66.51;100096.22;5026621;28;20378;-28
2022/07/21 04:03:56;;;;;;;8.73;4.60;;;;;;;18.02;66.73;100094.91;5026506;28;20575;-33
2022/07/21 04:06:22;;;;;;;7.25;4.55;;;;;;;17.90;66.47;100082.72;5026583;28;20067;-28
2022/07/21 04:08:47;;;;;;;7.45;4.30;;;;;;;18.17;66.36;100096.78;5026447;28;20079;-32
2022/07/21 04:11:13;;;;;;;7.18;4.35;;;;;;;18.25;65.10;100104.34;5026501;28;20038;-27
2022/07/21 04:13:38;;;;;;;8.85;4.80;;;;;;;18.09;66.22;100101.91;5026183;28;20030;-27
2022/07/21 04:16:04;;;;;;;10.40;4.97;;;;;;;18.09;65.92;100093.81;5028505;28;20525;-27
2022/07/21 04:18:29;;;;;;;7.00;4.50;;;;;;;18.29;65.38;100093.84;5029442;28;20090;-28
2022/07/21 04:20:55;;;;;;;9.30;4.50;;;;;;;18.35;65.73;100087.38;5030077;28;20117;-29
2022/07/21 04:23:20;;;;;;;17.58;5.45;;;;;;;18.27;65.68;100077.91;5028718;28;20037;-27
2022/07/21 04:25:46;;;;;;;11.30;4.90;;;;;;;18.39;66.48;100084.94;5030264;28;20100;-27
2022/07/21 04:28:11;;;;;;;9.68;4.55;;;;;;;18.47;66.50;100085.19;5030460;28;20113;-27
2022/07/21 04:30:37;;;;;;;8.18;4.40;;;;;;;18.48;66.45;100092.22;5030458;28;20052;-27
2022/07/21 04:33:03;;;;;;;7.78;4.90;;;;;;;18.55;66.33;100064.94;5030194;28;20028;-29
2022/07/21 04:35:28;;;;;;;6.22;4.60;;;;;;;18.89;65.68;100085.19;5029861;28;20029;-32
2022/07/21 04:37:53;;;;;;;7.57;5.28;;;;;;;18.88;66.13;100062.75;5029882;28;20064;-28
2022/07/21 04:40:19;;;;;;;8.05;5.40;;;;;;;19.04;66.11;100088.66;5030168;28;20025;-27
2022/07/21 04:42:45;;;;;;;10.13;5.05;;;;;;;19.04;66.07;100066.22;5030245;28;20539;-27
2022/07/21 04:45:13;;;;;;;12.85;5.90;;;;;;;19.03;66.30;100067.31;5028507;28;20048;-29
2022/07/21 04:47:56;;;;;;;8.77;5.10;;;;;;;19.21;65.96;100082.94;5028227;28;20029;-29
2022/07/21 04:50:27;;;;;;;8.88;5.85;;;;;;;19.26;66.00;100085.59;5028351;28;20791;-27
2022/07/21 04:52:53;;;;;;;10.65;6.78;;;;;;;19.24;65.94;100071.53;5028370;28;20025;-32
2022/07/21 04:55:20;;;;;;;12.68;7.70;;;;;;;19.33;65.30;100065.56;5028042;28;20056;-32
2022/07/21 04:57:48;;;;;;;12.27;8.07;;;;;;;19.56;65.90;100094.69;5028361;28;20033;-28
2022/07/21 05:00:15;;;;;;;16.13;9.75;;;;;;;19.75;64.57;100094.06;5028260;28;20318;-30
2022/07/21 05:02:41;;;;;;;14.45;10.07;;;;;;;19.96;64.39;100084.75;5029499;28;20061;-28
2022/07/21 05:05:07;;;;;;;21.50;11.80;;;;;;;20.00;63.59;100085.81;5029647;28;20029;-30
2022/07/21 05:07:33;;;;;;;20.02;13.07;;;;;;;19.98;63.71;100090.69;5028060;28;20036;-28
2022/07/21 05:09:59;;;;;;;18.02;13.07;;;;;;;20.16;62.79;100091.09;5029667;28;20033;-28
2022/07/21 05:12:27;;;;;;;24.13;13.55;;;;;;;20.10;63.07;100075.97;5029724;28;20040;-27
2022/07/21 05:14:53;;;;;;;19.75;13.60;;;;;;;20.28;62.37;100083.44;5027483;28;20501;-28
2022/07/21 05:17:18;;;;;;;21.45;13.70;;;;;;;20.38;62.58;100105.00;5027777;28;20029;-27
2022/07/21 05:19:48;;;;;;;18.13;12.30;;;;;;;20.60;61.43;100098.38;5028067;28;20076;-28
2022/07/21 05:22:14;;;;;;;16.35;11.45;;;;;;;20.54;61.49;100083.22;5029592;28;20030;-29
2022/07/21 05:24:39;;;;;;;19.35;12.02;;;;;;;20.62;62.46;100094.28;5028021;28;20033;-28
2022/07/21 05:27:04;;;;;;;17.55;11.45;;;;;;;20.82;61.75;100098.69;5029232;28;20030;-36
2022/07/21 05:29:30;;;;;;;15.73;10.40;;;;;;;20.96;62.01;100103.44;5029138;28;20060;-28
2022/07/21 05:31:55;;;;;;;18.23;10.55;;;;;;;21.12;61.18;100102.16;5029028;28;20029;-28
2022/07/21 05:34:21;;;;;;;15.30;9.80;;;;;;;21.09;61.78;100113.59;5029277;28;20034;-27
2022/07/21 05:36:46;;;;;;;11.27;8.70;;;;;;;21.25;61.96;100101.50;5029192;28;20030;-31
2022/07/21 05:39:11;;;;;;;14.43;10.00;;;;;;;21.42;61.22;100097.50;5029136;28;20049;-28
2022/07/21 05:41:37;;;;;;;11.60;7.90;;;;;;;21.54;60.22;100099.81;5028651;28;20029;-28
2022/07/21 05:44:02;;;;;;;13.98;8.60;;;;;;;21.60;59.92;100083.19;5028873;28;20033;-31
2022/07/21 05:46:28;;;;;;;11.05;6.70;;;;;;;22.01;58.67;100107.03;5028550;28;20034;-27
2022/07/21 05:48:54;;;;;;;9.65;7.43;;;;;;;21.95;59.09;100086.47;5028880;28;20026;-27
2022/07/21 05:51:20;;;;;;;13.93;7.60;;;;;;;22.17;57.15;100098.63;5027082;28;20025;-27
2022/07/21 05:53:45;;;;;;;11.90;7.28;;;;;;;22.20;57.86;100088.00;5028496;28;20086;-27
2022/07/21 05:56:11;;;;;;;12.05;6.90;;;;;;;22.36;57.23;100091.31;5028771;28;20814;-34
2022/07/21 05:58:36;;;;;;;9.48;6.25;;;;;;;22.73;56.91;100091.50;5028672;28;20029;-28
2022/07/21 06:01:08;;;;;;;9.07;5.82;;;;;;;22.89;55.74;100078.44;5028242;28;20060;-28
2022/07/21 06:03:41;;;;;;;11.02;5.75;;;;;;;23.03;55.36;100096.41;5027036;28;20026;-28
2022/07/21 06:06:07;;;;;;;10.18;5.70;;;;;;;23.20;54.97;100075.97;5027422;28;20032;-29
2022/07/21 06:08:33;;;;;;;13.00;5.20;;;;;;;23.45;54.00;100082.78;5027094;28;20504;-28
2022/07/21 06:10:59;;;;;;;6.95;4.88;;;;;;;23.66;51.59;100083.97;5028816;28;20033;-29
2022/07/21 06:13:24;;;;;;;8.57;4.47;;;;;;;23.79;51.05;100071.44;5028076;28;20477;-28
2022/07/21 06:15:50;;;;;;;7.28;4.03;;;;;;;24.01;50.07;100078.84;5028207;28;20057;-28
2022/07/21 06:18:15;;;;;;;7.03;3.92;;;;;;;24.22;51.31;100081.06;5028235;28;20420;-29
2022/07/21 06:20:41;;;;;;;7.60;4.50;;;;;;;24.36;50.11;100081.03;5028249;28;20605;-32
2022/07/21 06:23:07;;;;;;;8.00;3.83;;;;;;;24.51;48.35;100064.28;5026673;28;20030;-28
2022/07/21 06:25:33;;;;;;;9.38;4.10;;;;;;;24.76;48.16;100079.16;5027792;28;20512;-29
2022/07/21 06:27:58;;;;;;;8.25;3.70;;;;;;;24.96;46.43;100055.19;5028130;28;20029;-30
2022/07/21 06:30:23;;;;;;;8.50;4.22;;;;;;;25.20;47.63;100065.72;5027731;28;20033;-29
2022/07/21 06:32:49;;;;;;;13.93;4.10;;;;;;;25.54;45.92;100070.47;5028172;28;20036;-28
2022/07/21 06:35:14;;;;;;;8.32;4.13;;;;;;;25.64;44.20;100048.31;5028252;28;20452;-31
2022/07/21 06:37:45;;;;;;;12.68;3.83;;;;;;;25.84;44.46;100063.25;5009132;28;20026;-28
2022/07/21 06:40:11;;;;;;;10.23;3.80;;;;;;;26.03;43.17;100071.16;5026533;28;20029;-30
2022/07/21 06:42:37;;;;;;;6.88;3.50;;;;;;;26.11;43.41;100066.00;5026268;28;20026;-29
2022/07/21 06:45:03;;;;;;;7.05;3.45;;;;;;;26.30;42.33;100061.00;5026593;28;20099;-31
2022/07/21 06:47:29;;;;;;;5.35;3.42;;;;;;;26.45;41.24;100040.53;5026217;28;20068;-29
2022/07/21 06:49:54;;;;;;;8.35;3.00;;;;;;;26.48;40.00;100039.06;5027879;28;20065;-32
2022/07/21 06:52:20;;;;;;;6.45;3.38;;;;;;;26.76;40.71;100061.38;5028105;28;20444;-29
2022/07/21 06:54:45;;;;;;;7.15;3.25;;;;;;;26.98;40.46;100063.06;5026304;28;20464;-28
2022/07/21 06:57:11;;;;;;;10.18;4.40;;;;;;;27.01;40.64;100055.00;5026155;28;20099;-28
2022/07/21 06:59:37;;;;;;;6.70;3.20;;;;;;;27.13;39.11;100032.38;5027144;28;20482;-33
2022/07/21 07:02:02;;;;;;;5.43;3.25;;;;;;;26.96;39.75;100041.47;5027850;28;20044;-28
2022/07/21 07:04:28;;;;;;;5.32;2.95;;;;;;;27.21;39.55;100053.41;5027517;28;20115;-31
2022/07/21 07:06:55;;;;;;;5.07;3.00;;;;;;;27.47;39.00;100033.31;5025955;28;20091;-31
2022/07/21 07:09:22;;;;;;;6.97;3.27;;;;;;;27.33;39.61;100033.56;5025546;28;20580;-31
2022/07/21 07:11:48;;;;;;;4.43;3.35;;;;;;;27.51;38.59;100019.75;5025702;28;20708;-28
2022/07/21 07:14:14;;;;;;;5.80;3.42;;;;;;;27.90;38.53;100043.16;5025587;28;20067;-28
2022/07/21 07:16:40;;;;;;;5.15;3.38;;;;;;;28.05;38.56;100033.50;5025434;28;20057;-28
2022/07/21 07:19:05;;;;;;;7.82;3.53;;;;;;;28.01;36.51;100011.47;5027387;28;20167;-28
2022/07/21 07:21:31;;;;;;;4.95;3.05;;;;;;;28.26;37.34;100044.44;5026730;28;20029;-28
2022/07/21 07:23:56;;;;;;;5.72;2.83;;;;;;;28.27;36.03;100034.25;5027137;28;20032;-28
2022/07/21 07:26:22;;;;;;;4.80;3.00;;;;;;;28.31;35.78;100035.97;5025379;28;20052;-28
2022/07/21 07:28:47;;;;;;;5.55;2.78;;;;;;;28.33;34.88;100022.72;5026970;28;20464;-29
2022/07/21 07:31:13;;;;;;;5.28;2.90;;;;;;;28.44;35.00;100023.91;5027093;28;20041;-30
2022/07/21 07:33:38;;;;;;;6.75;3.38;;;;;;;28.67;35.88;100030.91;5026942;28;20483;-28
2022/07/21 07:36:04;;;;;;;6.43;3.67;;;;;;;28.74;36.01;100031.97;5026972;28;20033;-28
2022/07/21 07:38:29;;;;;;;5.68;3.15;;;;;;;28.73;35.15;100021.31;5027033;28;20083;-32
2022/07/21 07:40:55;;;;;;;4.28;2.85;;;;;;;28.49;35.86;100011.13;5026680;28;20029;-30
2022/07/21 07:43:20;;;;;;;8.50;3.47;;;;;;;28.90;35.88;100017.56;5024759;28;20040;-27
2022/07/21 07:45:46;;;;;;;5.60;3.30;;;;;;;29.08;35.71;100023.63;5026998;28;20032;-30
2022/07/21 07:48:11;;;;;;;7.72;3.50;;;;;;;29.25;34.66;100028.88;5026719;28;20055;-28
2022/07/21 07:50:37;;;;;;;7.38;3.70;;;;;;;29.31;35.20;100027.50;5025882;28;20413;-28
2022/07/21 07:53:02;;;;;;;6.03;3.08;;;;;;;29.69;35.00;100028.19;5026699;28;20029;-28
2022/07/21 07:55:28;;;;;;;6.55;3.42;;;;;;;29.77;33.92;100017.09;5026343;28;20033;-33
2022/07/21 07:57:53;;;;;;;6.68;3.33;;;;;;;29.77;33.73;100005.28;5024901;28;20029;-28
2022/07/21 08:00:19;;;;;;;5.60;3.10;;;;;;;29.92;34.12;100018.28;5026792;28;20473;-28
2022/07/21 08:02:45;;;;;;;5.90;3.28;;;;;;;29.99;33.86;100004.72;5026760;28;20591;-28
2022/07/21 08:05:11;;;;;;;6.10;3.15;;;;;;;30.26;33.55;100010.56;5025095;28;20037;-31
2022/07/21 08:07:38;;;;;;;6.45;3.47;;;;;;;30.41;32.70;100006.25;5024778;28;20029;-32
2022/07/21 08:10:09;;;;;;;7.13;3.80;;;;;;;30.65;32.47;100010.78;5024998;28;20428;-32
2022/07/21 08:12:35;;;;;;;9.70;3.42;;;;;;;30.75;31.42;100003.91;5025167;28;20033;-27
2022/07/21 08:15:01;;;;;;;6.47;2.70;;;;;;;31.07;32.03;100006.66;5024883;28;20037;-29
2022/07/21 08:17:27;;;;;;;10.27;3.90;;;;;;;31.06;29.71;100002.28;5025026;28;20648;-30
2022/07/21 08:19:52;;;;;;;9.55;3.67;;;;;;;31.00;30.56;100007.31;5026375;28;20152;-36
2022/07/21 08:22:18;;;;;;;7.28;3.25;;;;;;;31.03;30.20;99993.59;5026446;28;20065;-28
2022/07/21 08:24:43;;;;;;;5.32;3.35;;;;;;;31.12;30.81;100001.69;5026159;28;20029;-28
2022/07/21 08:27:09;;;;;;;8.00;3.58;;;;;;;31.38;30.31;99997.50;5024839;28;20029;-32
2022/07/21 08:29:34;;;;;;;4.70;3.10;;;;;;;31.42;29.02;99981.81;5026318;28;20053;-28
2022/07/21 08:32:00;;;;;;;4.70;2.65;;;;;;;31.76;27.71;99998.69;5026305;28;20529;-29
2022/07/21 08:34:26;;;;;;;6.38;3.20;;;;;;;31.56;28.47;99984.91;5026307;28;20061;-33
2022/07/21 08:36:51;;;;;;;8.27;3.10;;;;;;;31.79;28.65;99984.97;5024748;28;20033;-31
2022/07/21 08:39:17;;;;;;;6.15;3.33;;;;;;;31.77;29.56;100000.28;5025980;28;20105;-33
2022/07/21 08:41:43;;;;;;;7.30;3.20;;;;;;;31.86;29.04;99995.34;5025876;28;20040;-33
2022/07/21 08:44:10;;;;;;;6.75;3.20;;;;;;;32.00;30.42;99978.31;5026382;28;20061;-28
2022/07/21 08:46:39;;;;;;;6.65;3.22;;;;;;;32.09;29.39;99972.53;5025987;28;20477;-28
2022/07/21 08:49:05;;;;;;;9.57;3.72;;;;;;;32.09;29.58;99969.78;5024874;28;20083;-31
2022/07/21 08:51:34;;;;;;;9.95;3.90;;;;;;;32.30;28.83;99986.69;5024501;28;20036;-28
2022/07/21 08:53:59;;;;;;;6.57;3.80;;;;;;;32.34;29.46;99971.00;5025898;28;20035;-28
2022/07/21 08:56:25;;;;;;;6.30;3.50;;;;;;;32.79;28.99;99988.69;5026205;28;20029;-30
2022/07/21 08:58:51;;;;;;;6.47;3.40;;;;;;;32.80;28.87;99993.06;5025973;28;20037;-29
2022/07/21 09:01:16;;;;;;;5.57;3.05;;;;;;;32.85;28.82;99982.88;5025888;28;20040;-29
2022/07/21 09:03:42;;;;;;;6.13;3.10;;;;;;;33.02;28.63;99982.34;5029551;28;20037;-31
2022/07/21 09:06:15;;;;;;;6.78;3.53;;;;;;;32.93;27.93;99985.34;5029785;28;20038;-29
2022/07/21 09:08:46;;;;;;;6.85;3.58;;;;;;;33.01;27.88;99975.22;5029235;28;20041;-29
2022/07/21 09:11:17;;;;;;;6.43;3.08;;;;;;;33.37;27.98;99978.50;5029620;28;20124;-29
2022/07/21 09:13:46;;;;;;;5.60;3.00;;;;;;;33.22;28.37;99978.31;5028231;28;20123;-35
2022/07/21 09:16:12;;;;;;;5.82;3.15;;;;;;;33.32;27.50;99976.84;5029479;28;20580;-30
2022/07/21 09:18:49;;;;;;;5.93;2.83;;;;;;;33.29;27.31;99952.72;5028104;28;20186;-29
2022/07/21 09:21:16;;;;;;;;;;;;;;;33.57;26.71;99974.38;5028239;28;20037;-28
2022/07/21 09:23:41;;;;;;;5.65;2.80;;;;;;;33.71;27.51;99945.31;5027687;28;20593;-30
2022/07/21 09:26:07;;;;;;;5.68;2.78;;;;;;;33.71;26.61;99961.91;5029313;28;20021;-32
2022/07/21 09:28:32;;;;;;;4.72;2.65;;;;;;;33.80;25.87;99960.44;5029289;28;20041;-31
2022/07/21 09:31:01;;;;;;;4.18;2.53;;;;;;;33.95;25.95;99966.13;5029144;28;20037;-34
2022/07/21 09:33:44;;;;;;;4.82;2.70;;;;;;;33.90;25.97;99942.38;5027512;28;20067;-29
2022/07/21 09:36:15;;;;;;;5.70;2.90;;;;;;;34.27;25.79;99952.63;5029192;28;20067;-30
2022/07/21 09:38:58;;;;;;;5.32;2.72;;;;;;;34.12;26.48;99953.63;5027672;28;20025;-32
2022/07/21 09:41:25;;;;;;;6.40;2.88;;;;;;;34.09;26.56;99943.34;5028302;28;20698;-28
2022/07/21 09:43:56;;;;;;;6.75;2.40;;;;;;;34.32;26.95;99930.09;5007788;28;20413;-30
2022/07/21 09:46:28;;;;;;;6.97;2.63;;;;;;;34.52;25.45;99957.53;5007560;28;20038;-28
2022/07/21 09:48:56;;;;;;;6.30;2.75;;;;;;;34.83;25.50;99942.34;5009159;28;20056;-30
2022/07/21 09:51:31;;;;;;;4.70;2.70;;;;;;;34.89;24.24;99931.69;5007155;28;20034;-29
2022/07/21 09:54:08;;;;;;;4.85;2.60;;;;;;;35.17;23.40;99951.25;5007332;28;20073;-30
2022/07/21 09:56:36;;;;;;;4.15;2.65;;;;;;;35.12;24.45;99943.28;5025782;28;20028;-30
2022/07/21 09:59:04;;;;;;;3.70;2.33;;;;;;;35.43;23.80;99941.06;5026962;28;20029;-30
2022/07/21 10:01:30;;;;;;;4.28;2.60;;;;;;;35.35;23.16;99944.97;5026801;28;20029;-30
2022/07/21 10:03:57;;;;;;;7.55;2.63;;;;;;;35.68;23.25;99929.28;5028564;28;20059;-30
2022/07/21 10:06:25;;;;;;;3.33;2.45;;;;;;;35.58;23.50;99931.59;5026666;28;20030;-30
2022/07/21 10:08:52;;;;;;;3.10;2.40;;;;;;;35.53;22.81;99926.44;5026725;28;20192;-30
2022/07/21 10:11:18;;;;;;;7.80;2.30;;;;;;;35.81;22.22;99930.47;5010008;28;20029;-32
2022/07/21 10:13:43;;;;;;;4.43;2.80;;;;;;;35.53;22.25;99926.44;5027331;28;20039;-28
2022/07/21 10:16:11;;;;;;;4.32;2.28;;;;;;;35.41;21.76;99915.69;5027903;28;20050;-31
2022/07/21 10:18:44;;;;;;;6.38;2.60;;;;;;;35.70;23.27;99918.59;5026805;28;20119;-30
2022/07/21 10:21:29;;;;;;;4.97;2.50;;;;;;;35.75;21.43;99909.88;5025352;28;20099;-30
2022/07/21 10:23:55;;;;;;;3.85;2.33;;;;;;;35.76;23.91;99901.16;5007078;28;20513;-34
2022/07/21 10:26:21;;;;;;;4.00;2.30;;;;;;;35.46;22.35;99911.78;5007571;28;20525;-29
2022/07/21 10:28:46;;;;;;;4.20;2.50;;;;;;;35.44;23.34;99914.13;5008370;28;20034;-36
2022/07/21 10:31:21;;;;;;;5.45;2.65;;;;;;;35.77;21.72;99910.25;5008152;28;20050;-29
2022/07/21 10:33:49;;;;;;;6.85;2.58;;;;;;;36.03;22.10;99911.09;5006716;28;20091;-30
2022/07/21 10:36:27;;;;;;;4.57;2.50;;;;;;;36.52;22.17;99917.81;5007846;28;20486;-30
2022/07/21 10:39:12;;;;;;;4.80;2.63;;;;;;;36.65;23.05;99905.13;5007215;28;20034;-30
2022/07/21 10:41:43;;;;;;;4.75;2.58;;;;;;;36.12;21.81;99905.91;5006175;28;20041;-28
2022/07/21 10:44:27;;;;;;;7.30;2.80;;;;;;;36.16;22.03;99903.97;5007906;28;20457;-31
2022/07/21 10:47:07;;;;;;;4.70;2.55;;;;;;;35.87;22.10;99890.06;5007536;28;20605;-29
2022/07/21 10:49:49;;;;;;;6.18;2.60;;;;;;;36.46;22.40;99902.75;5006123;28;20037;-32
2022/07/21 10:52:41;;;;;;;4.72;2.65;;;;;;;36.72;21.00;99896.78;5007786;28;20496;-30
2022/07/21 10:55:09;;;;;;;3.63;2.40;;;;;;;37.03;20.97;99894.28;5007791;28;20076;-33
2022/07/21 10:57:36;;;;;;;3.78;2.55;;;;;;;37.28;20.58;99887.84;5007746;28;20040;-31
2022/07/21 11:00:30;;;;;;;4.70;2.80;;;;;;;37.53;21.61;99885.69;5006155;28;20030;-29
2022/07/21 11:02:59;;;;;;;6.05;2.80;;;;;;;37.53;22.73;99876.56;5006167;28;20042;-32
2022/07/21 11:05:27;;;;;;;3.97;2.45;;;;;;;37.59;20.79;99880.53;5006123;28;20121;-30
2022/07/21 11:08:09;;;;;;;4.60;2.60;;;;;;;37.82;20.96;99881.94;5007829;28;20033;-40
2022/07/21 11:10:36;;;;;;;6.75;2.60;;;;;;;37.79;21.04;99878.00;5007721;28;20030;-30
2022/07/21 11:13:02;;;;;;;4.70;2.45;;;;;;;37.79;21.26;99878.00;5007956;28;20493;-28
2022/07/21 11:15:55;;;;;;;4.05;2.38;;;;;;;38.06;20.21;99853.13;5007286;28;20053;-36
2022/07/21 11:18:23;;;;;;;4.28;2.30;;;;;;;38.03;22.98;99864.28;5007457;28;20034;-35
2022/07/21 11:21:07;;;;;;;40.00;11.98;;;;;;;37.55;22.51;99863.03;5006084;28;20034;-29
2022/07/21 11:23:40;;;;;;;7.88;3.08;;;;;;;37.50;24.52;99867.03;5005505;28;20879;-35
2022/07/21 11:26:06;;;;;;;23.17;8.85;;;;;;;37.20;21.42;99848.94;5005748;28;20038;-29
2022/07/21 11:28:32;;;;;;;7.60;3.25;;;;;;;37.56;21.21;99848.72;5005881;28;20022;-33